HBE weather

Borg El Arab International Airport
Alexandria, Alexandria Governorate, Egypt

Public forecast

Using degrees Celsius for public forecast. Weather courtesy of forecast.io.

METAR (pilot weather report)

Retrieved 2019/04/20 00:00 UTC (22 minutes ago):

HEBA 200000Z 31012KT 9999 SCT020 15/08 Q1018 NOSIG

TAF (pilot weather forecast)

Forecast is more than 12 hours old.

Retrieved 2019/04/19 00:15 UTC (1 day ago):

TAF HEBA 192300Z 2000/2106 31012KT 9999 FEW020